sensor_id;sensor_type;location;lat;lon;timestamp;temperature;humidity
72905;DHT22;61048;52.162;4.516;2023-04-25T00:00:26;16.60;50.60
72905;DHT22;61048;52.162;4.516;2023-04-25T00:02:53;16.60;50.40
72905;DHT22;61048;52.162;4.516;2023-04-25T00:05:21;16.60;50.50
72905;DHT22;61048;52.162;4.516;2023-04-25T00:07:48;16.60;50.50
72905;DHT22;61048;52.162;4.516;2023-04-25T00:10:15;16.60;50.50
72905;DHT22;61048;52.162;4.516;2023-04-25T00:12:42;16.60;50.40
72905;DHT22;61048;52.162;4.516;2023-04-25T00:15:10;16.60;50.40
72905;DHT22;61048;52.162;4.516;2023-04-25T00:17:38;16.60;50.40
72905;DHT22;61048;52.162;4.516;2023-04-25T00:20:06;16.50;50.40
72905;DHT22;61048;52.162;4.516;2023-04-25T00:22:34;16.50;50.50
72905;DHT22;61048;52.162;4.516;2023-04-25T00:25:03;16.50;50.50
72905;DHT22;61048;52.162;4.516;2023-04-25T00:27:30;16.50;50.40
72905;DHT22;61048;52.162;4.516;2023-04-25T00:29:56;16.50;50.60
72905;DHT22;61048;52.162;4.516;2023-04-25T00:32:23;16.50;50.60
72905;DHT22;61048;52.162;4.516;2023-04-25T00:34:51;16.50;50.50
72905;DHT22;61048;52.162;4.516;2023-04-25T00:37:18;16.40;50.40
72905;DHT22;61048;52.162;4.516;2023-04-25T00:39:45;16.40;50.40
72905;DHT22;61048;52.162;4.516;2023-04-25T00:42:12;16.40;50.50
72905;DHT22;61048;52.162;4.516;2023-04-25T00:44:39;16.40;50.40
72905;DHT22;61048;52.162;4.516;2023-04-25T00:47:07;16.40;50.40
72905;DHT22;61048;52.162;4.516;2023-04-25T00:49:34;16.40;50.40
72905;DHT22;61048;52.162;4.516;2023-04-25T00:52:02;16.40;50.40
72905;DHT22;61048;52.162;4.516;2023-04-25T00:54:29;16.40;50.50
72905;DHT22;61048;52.162;4.516;2023-04-25T00:56:57;16.40;50.50
72905;DHT22;61048;52.162;4.516;2023-04-25T00:59:24;16.40;50.50
72905;DHT22;61048;52.162;4.516;2023-04-25T01:01:53;16.40;50.50
72905;DHT22;61048;52.162;4.516;2023-04-25T01:04:20;16.40;50.50
72905;DHT22;61048;52.162;4.516;2023-04-25T01:06:48;16.40;50.40
72905;DHT22;61048;52.162;4.516;2023-04-25T01:09:16;16.30;50.40
72905;DHT22;61048;52.162;4.516;2023-04-25T01:11:43;16.40;50.40
72905;DHT22;61048;52.162;4.516;2023-04-25T01:14:10;16.30;50.50
72905;DHT22;61048;52.162;4.516;2023-04-25T01:16:37;16.30;50.50
72905;DHT22;61048;52.162;4.516;2023-04-25T01:19:05;16.30;50.40
72905;DHT22;61048;52.162;4.516;2023-04-25T01:21:36;16.30;50.60
72905;DHT22;61048;52.162;4.516;2023-04-25T01:24:04;16.30;50.40
72905;DHT22;61048;52.162;4.516;2023-04-25T01:26:31;16.30;50.60
72905;DHT22;61048;52.162;4.516;2023-04-25T01:28:59;16.30;50.50
72905;DHT22;61048;52.162;4.516;2023-04-25T01:31:26;16.30;50.50
72905;DHT22;61048;52.162;4.516;2023-04-25T01:33:54;16.30;50.40
72905;DHT22;61048;52.162;4.516;2023-04-25T01:36:21;16.30;50.50
72905;DHT22;61048;52.162;4.516;2023-04-25T01:38:50;16.20;50.50
72905;DHT22;61048;52.162;4.516;2023-04-25T01:41:16;16.30;50.50
72905;DHT22;61048;52.162;4.516;2023-04-25T01:43:44;16.30;50.40
72905;DHT22;61048;52.162;4.516;2023-04-25T01:46:11;16.20;50.50
72905;DHT22;61048;52.162;4.516;2023-04-25T01:48:38;16.30;50.50
72905;DHT22;61048;52.162;4.516;2023-04-25T01:51:04;16.20;50.50
72905;DHT22;61048;52.162;4.516;2023-04-25T01:53:31;16.20;50.50
72905;DHT22;61048;52.162;4.516;2023-04-25T01:56:00;16.20;50.50
72905;DHT22;61048;52.162;4.516;2023-04-25T01:58:27;16.20;50.60
72905;DHT22;61048;52.162;4.516;2023-04-25T02:00:53;16.20;50.50
72905;DHT22;61048;52.162;4.516;2023-04-25T02:03:20;16.20;50.50
72905;DHT22;61048;52.162;4.516;2023-04-25T02:05:47;16.20;50.50
72905;DHT22;61048;52.162;4.516;2023-04-25T02:08:16;16.20;50.50
72905;DHT22;61048;52.162;4.516;2023-04-25T02:10:43;16.20;50.60
72905;DHT22;61048;52.162;4.516;2023-04-25T02:13:12;16.20;50.60
72905;DHT22;61048;52.162;4.516;2023-04-25T02:15:39;16.20;50.60
72905;DHT22;61048;52.162;4.516;2023-04-25T02:18:06;16.20;50.60
72905;DHT22;61048;52.162;4.516;2023-04-25T02:20:34;16.20;50.60
72905;DHT22;61048;52.162;4.516;2023-04-25T02:23:01;16.20;50.60
72905;DHT22;61048;52.162;4.516;2023-04-25T02:25:28;16.20;50.50
72905;DHT22;61048;52.162;4.516;2023-04-25T02:27:55;16.20;50.60
72905;DHT22;61048;52.162;4.516;2023-04-25T02:30:24;16.10;50.60
72905;DHT22;61048;52.162;4.516;2023-04-25T02:32:50;16.10;50.40
72905;DHT22;61048;52.162;4.516;2023-04-25T02:35:18;16.10;50.60
72905;DHT22;61048;52.162;4.516;2023-04-25T02:37:45;16.10;50.40
72905;DHT22;61048;52.162;4.516;2023-04-25T02:40:12;16.10;50.40
72905;DHT22;61048;52.162;4.516;2023-04-25T02:42:39;16.10;50.50
72905;DHT22;61048;52.162;4.516;2023-04-25T02:45:06;16.10;50.40
72905;DHT22;61048;52.162;4.516;2023-04-25T02:47:35;16.10;50.50
72905;DHT22;61048;52.162;4.516;2023-04-25T02:50:02;16.10;50.40
72905;DHT22;61048;52.162;4.516;2023-04-25T02:52:29;16.10;50.30
72905;DHT22;61048;52.162;4.516;2023-04-25T02:54:55;16.10;50.40
72905;DHT22;61048;52.162;4.516;2023-04-25T02:57:22;16.00;50.30
72905;DHT22;61048;52.162;4.516;2023-04-25T02:59:49;16.10;50.20
72905;DHT22;61048;52.162;4.516;2023-04-25T03:02:16;16.10;50.20
72905;DHT22;61048;52.162;4.516;2023-04-25T03:04:44;16.00;50.30
72905;DHT22;61048;52.162;4.516;2023-04-25T03:07:11;16.00;50.30
72905;DHT22;61048;52.162;4.516;2023-04-25T03:09:38;16.00;50.20
72905;DHT22;61048;52.162;4.516;2023-04-25T03:12:05;16.00;50.20
72905;DHT22;61048;52.162;4.516;2023-04-25T03:14:33;16.00;50.40
72905;DHT22;61048;52.162;4.516;2023-04-25T03:16:59;16.00;50.20
72905;DHT22;61048;52.162;4.516;2023-04-25T03:19:26;16.00;50.30
72905;DHT22;61048;52.162;4.516;2023-04-25T03:21:55;16.00;50.30
72905;DHT22;61048;52.162;4.516;2023-04-25T03:24:22;16.00;50.20
72905;DHT22;61048;52.162;4.516;2023-04-25T03:26:48;15.90;50.40
72905;DHT22;61048;52.162;4.516;2023-04-25T03:29:15;15.90;50.40
72905;DHT22;61048;52.162;4.516;2023-04-25T03:31:42;15.90;50.40
72905;DHT22;61048;52.162;4.516;2023-04-25T03:34:09;15.90;50.30
72905;DHT22;61048;52.162;4.516;2023-04-25T03:36:36;15.90;50.40
72905;DHT22;61048;52.162;4.516;2023-04-25T03:39:04;15.90;50.40
72905;DHT22;61048;52.162;4.516;2023-04-25T03:41:31;15.90;50.40
72905;DHT22;61048;52.162;4.516;2023-04-25T03:43:58;15.90;50.30
72905;DHT22;61048;52.162;4.516;2023-04-25T03:46:25;15.90;50.40
72905;DHT22;61048;52.162;4.516;2023-04-25T03:48:52;15.90;50.40
72905;DHT22;61048;52.162;4.516;2023-04-25T03:51:19;15.90;50.40
72905;DHT22;61048;52.162;4.516;2023-04-25T03:53:45;15.90;50.40
72905;DHT22;61048;52.162;4.516;2023-04-25T03:56:14;15.90;50.50
72905;DHT22;61048;52.162;4.516;2023-04-25T03:58:41;15.90;50.50
72905;DHT22;61048;52.162;4.516;2023-04-25T04:01:08;15.90;50.50
72905;DHT22;61048;52.162;4.516;2023-04-25T04:03:35;15.90;50.50
72905;DHT22;61048;52.162;4.516;2023-04-25T04:06:02;15.90;50.60
72905;DHT22;61048;52.162;4.516;2023-04-25T04:08:29;15.90;50.50
72905;DHT22;61048;52.162;4.516;2023-04-25T04:10:57;15.90;50.60
72905;DHT22;61048;52.162;4.516;2023-04-25T04:13:25;15.90;50.50
72905;DHT22;61048;52.162;4.516;2023-04-25T04:15:52;15.90;50.50
72905;DHT22;61048;52.162;4.516;2023-04-25T04:18:19;15.90;50.30
72905;DHT22;61048;52.162;4.516;2023-04-25T04:20:46;15.90;50.40
72905;DHT22;61048;52.162;4.516;2023-04-25T04:23:13;15.80;50.20
72905;DHT22;61048;52.162;4.516;2023-04-25T04:25:40;15.80;50.30
72905;DHT22;61048;52.162;4.516;2023-04-25T04:28:07;15.80;50.30
72905;DHT22;61048;52.162;4.516;2023-04-25T04:30:35;15.80;50.20
72905;DHT22;61048;52.162;4.516;2023-04-25T04:33:03;15.80;50.20
72905;DHT22;61048;52.162;4.516;2023-04-25T04:35:30;15.80;50.20
72905;DHT22;61048;52.162;4.516;2023-04-25T04:37:56;15.80;50.10
72905;DHT22;61048;52.162;4.516;2023-04-25T04:40:23;15.80;50.20
72905;DHT22;61048;52.162;4.516;2023-04-25T04:42:51;15.70;50.20
72905;DHT22;61048;52.162;4.516;2023-04-25T04:45:18;15.70;50.20
72905;DHT22;61048;52.162;4.516;2023-04-25T04:47:47;15.80;50.10
72905;DHT22;61048;52.162;4.516;2023-04-25T04:50:15;15.70;50.00
72905;DHT22;61048;52.162;4.516;2023-04-25T04:52:42;15.80;50.10
72905;DHT22;61048;52.162;4.516;2023-04-25T04:55:09;15.80;50.10
72905;DHT22;61048;52.162;4.516;2023-04-25T04:57:36;15.80;50.10
72905;DHT22;61048;52.162;4.516;2023-04-25T05:00:05;15.80;50.20
72905;DHT22;61048;52.162;4.516;2023-04-25T05:02:36;15.80;50.10
72905;DHT22;61048;52.162;4.516;2023-04-25T05:05:04;15.80;50.30
72905;DHT22;61048;52.162;4.516;2023-04-25T05:07:31;15.80;50.30
72905;DHT22;61048;52.162;4.516;2023-04-25T05:09:58;15.80;50.30
72905;DHT22;61048;52.162;4.516;2023-04-25T05:12:25;15.80;50.20
72905;DHT22;61048;52.162;4.516;2023-04-25T05:14:52;15.80;50.10
72905;DHT22;61048;52.162;4.516;2023-04-25T05:17:19;15.80;50.10
72905;DHT22;61048;52.162;4.516;2023-04-25T05:19:46;15.80;50.00
72905;DHT22;61048;52.162;4.516;2023-04-25T05:22:14;15.80;50.10
72905;DHT22;61048;52.162;4.516;2023-04-25T05:24:41;15.80;50.20
72905;DHT22;61048;52.162;4.516;2023-04-25T05:27:07;15.80;50.20
72905;DHT22;61048;52.162;4.516;2023-04-25T05:29:34;15.80;50.00
72905;DHT22;61048;52.162;4.516;2023-04-25T05:32:02;15.80;50.10
72905;DHT22;61048;52.162;4.516;2023-04-25T05:34:28;15.70;50.10
72905;DHT22;61048;52.162;4.516;2023-04-25T05:36:55;15.80;50.20
72905;DHT22;61048;52.162;4.516;2023-04-25T05:39:23;15.80;50.10
72905;DHT22;61048;52.162;4.516;2023-04-25T05:41:50;15.80;50.30
72905;DHT22;61048;52.162;4.516;2023-04-25T05:44:17;15.80;50.40
72905;DHT22;61048;52.162;4.516;2023-04-25T05:46:44;15.80;50.40
72905;DHT22;61048;52.162;4.516;2023-04-25T05:49:11;15.80;50.40
72905;DHT22;61048;52.162;4.516;2023-04-25T05:51:38;15.80;50.40
72905;DHT22;61048;52.162;4.516;2023-04-25T05:54:05;15.80;50.30
72905;DHT22;61048;52.162;4.516;2023-04-25T05:56:33;15.80;50.40
72905;DHT22;61048;52.162;4.516;2023-04-25T05:59:00;15.80;50.30
72905;DHT22;61048;52.162;4.516;2023-04-25T06:01:27;15.80;50.50
72905;DHT22;61048;52.162;4.516;2023-04-25T06:03:53;15.80;50.60
72905;DHT22;61048;52.162;4.516;2023-04-25T06:06:20;15.80;50.50
72905;DHT22;61048;52.162;4.516;2023-04-25T06:08:47;15.90;50.50
72905;DHT22;61048;52.162;4.516;2023-04-25T06:11:14;15.90;50.60
72905;DHT22;61048;52.162;4.516;2023-04-25T06:13:42;15.90;50.60
72905;DHT22;61048;52.162;4.516;2023-04-25T06:16:09;15.90;50.60
72905;DHT22;61048;52.162;4.516;2023-04-25T06:18:36;15.90;50.60
72905;DHT22;61048;52.162;4.516;2023-04-25T06:21:03;16.00;50.60
72905;DHT22;61048;52.162;4.516;2023-04-25T06:23:30;16.00;50.60
72905;DHT22;61048;52.162;4.516;2023-04-25T06:25:57;16.00;50.50
72905;DHT22;61048;52.162;4.516;2023-04-25T06:28:23;16.00;50.40
72905;DHT22;61048;52.162;4.516;2023-04-25T06:30:52;16.10;50.40
72905;DHT22;61048;52.162;4.516;2023-04-25T06:33:19;16.10;50.50
72905;DHT22;61048;52.162;4.516;2023-04-25T06:35:46;16.20;50.40
72905;DHT22;61048;52.162;4.516;2023-04-25T06:38:13;16.30;50.30
72905;DHT22;61048;52.162;4.516;2023-04-25T06:40:41;16.40;50.20
72905;DHT22;61048;52.162;4.516;2023-04-25T06:43:08;16.50;50.00
72905;DHT22;61048;52.162;4.516;2023-04-25T06:45:35;16.60;49.80
72905;DHT22;61048;52.162;4.516;2023-04-25T06:48:03;16.60;49.80
72905;DHT22;61048;52.162;4.516;2023-04-25T06:50:30;16.70;49.70
72905;DHT22;61048;52.162;4.516;2023-04-25T06:52:57;16.70;49.70
72905;DHT22;61048;52.162;4.516;2023-04-25T06:55:24;16.70;49.70
72905;DHT22;61048;52.162;4.516;2023-04-25T06:57:51;16.70;49.70
72905;DHT22;61048;52.162;4.516;2023-04-25T07:00:19;16.70;49.60
72905;DHT22;61048;52.162;4.516;2023-04-25T07:02:45;16.70;49.60
72905;DHT22;61048;52.162;4.516;2023-04-25T07:05:14;16.80;49.50
72905;DHT22;61048;52.162;4.516;2023-04-25T07:07:41;16.90;49.40
72905;DHT22;61048;52.162;4.516;2023-04-25T07:10:08;17.00;49.30
72905;DHT22;61048;52.162;4.516;2023-04-25T07:12:35;17.10;49.20
72905;DHT22;61048;52.162;4.516;2023-04-25T07:15:02;17.10;49.20
72905;DHT22;61048;52.162;4.516;2023-04-25T07:17:32;17.10;49.10
72905;DHT22;61048;52.162;4.516;2023-04-25T07:19:59;17.10;49.00
72905;DHT22;61048;52.162;4.516;2023-04-25T07:22:27;17.10;48.90
72905;DHT22;61048;52.162;4.516;2023-04-25T07:24:54;17.10;48.90
72905;DHT22;61048;52.162;4.516;2023-04-25T07:27:21;17.00;48.90
72905;DHT22;61048;52.162;4.516;2023-04-25T07:29:48;17.00;48.70
72905;DHT22;61048;52.162;4.516;2023-04-25T07:32:15;17.10;48.70
72905;DHT22;61048;52.162;4.516;2023-04-25T07:34:42;17.20;48.50
72905;DHT22;61048;52.162;4.516;2023-04-25T07:37:09;17.30;48.60
72905;DHT22;61048;52.162;4.516;2023-04-25T07:39:37;17.40;48.40
72905;DHT22;61048;52.162;4.516;2023-04-25T07:42:04;17.50;48.40
72905;DHT22;61048;52.162;4.516;2023-04-25T07:44:33;17.50;48.20
72905;DHT22;61048;52.162;4.516;2023-04-25T07:47:04;17.50;48.30
72905;DHT22;61048;52.162;4.516;2023-04-25T07:49:32;17.50;48.20
72905;DHT22;61048;52.162;4.516;2023-04-25T07:52:00;17.50;48.00
72905;DHT22;61048;52.162;4.516;2023-04-25T07:54:27;17.60;47.90
72905;DHT22;61048;52.162;4.516;2023-04-25T07:56:55;17.70;47.70
72905;DHT22;61048;52.162;4.516;2023-04-25T07:59:22;17.70;47.60
72905;DHT22;61048;52.162;4.516;2023-04-25T08:01:49;17.70;47.60
72905;DHT22;61048;52.162;4.516;2023-04-25T08:04:16;17.70;47.50
72905;DHT22;61048;52.162;4.516;2023-04-25T08:06:43;17.70;47.40
72905;DHT22;61048;52.162;4.516;2023-04-25T08:09:11;17.70;47.30
72905;DHT22;61048;52.162;4.516;2023-04-25T08:11:37;17.80;47.10
72905;DHT22;61048;52.162;4.516;2023-04-25T08:14:06;17.80;46.90
72905;DHT22;61048;52.162;4.516;2023-04-25T08:16:33;17.90;47.10
72905;DHT22;61048;52.162;4.516;2023-04-25T08:19:00;17.90;47.00
72905;DHT22;61048;52.162;4.516;2023-04-25T08:21:27;17.90;47.00
72905;DHT22;61048;52.162;4.516;2023-04-25T08:23:54;18.00;46.60
72905;DHT22;61048;52.162;4.516;2023-04-25T08:26:22;17.90;46.70
72905;DHT22;61048;52.162;4.516;2023-04-25T08:28:48;17.90;46.40
72905;DHT22;61048;52.162;4.516;2023-04-25T08:31:17;17.90;46.70
72905;DHT22;61048;52.162;4.516;2023-04-25T08:33:44;17.80;46.60
72905;DHT22;61048;52.162;4.516;2023-04-25T08:36:11;17.80;46.50
72905;DHT22;61048;52.162;4.516;2023-04-25T08:38:38;17.80;46.90
72905;DHT22;61048;52.162;4.516;2023-04-25T08:41:05;17.80;46.90
72905;DHT22;61048;52.162;4.516;2023-04-25T08:43:34;17.80;46.80
72905;DHT22;61048;52.162;4.516;2023-04-25T08:46:01;17.80;46.90
72905;DHT22;61048;52.162;4.516;2023-04-25T08:48:32;17.80;46.90
72905;DHT22;61048;52.162;4.516;2023-04-25T08:51:01;17.80;46.80
72905;DHT22;61048;52.162;4.516;2023-04-25T08:53:30;17.80;46.80
72905;DHT22;61048;52.162;4.516;2023-04-25T08:55:59;17.80;46.80
72905;DHT22;61048;52.162;4.516;2023-04-25T08:58:27;17.80;46.80
72905;DHT22;61048;52.162;4.516;2023-04-25T09:00:55;17.80;46.80
72905;DHT22;61048;52.162;4.516;2023-04-25T09:03:21;17.90;46.80
72905;DHT22;61048;52.162;4.516;2023-04-25T09:05:51;17.90;46.80
72905;DHT22;61048;52.162;4.516;2023-04-25T09:08:18;17.80;46.70
72905;DHT22;61048;52.162;4.516;2023-04-25T09:10:45;17.80;46.60
72905;DHT22;61048;52.162;4.516;2023-04-25T09:13:13;17.80;46.70
72905;DHT22;61048;52.162;4.516;2023-04-25T09:15:48;17.80;46.40
72905;DHT22;61048;52.162;4.516;2023-04-25T09:18:22;17.80;46.50
72905;DHT22;61048;52.162;4.516;2023-04-25T09:20:51;17.80;46.30
72905;DHT22;61048;52.162;4.516;2023-04-25T09:23:19;17.90;46.40
72905;DHT22;61048;52.162;4.516;2023-04-25T09:25:48;17.80;46.50
72905;DHT22;61048;52.162;4.516;2023-04-25T09:28:15;17.80;46.60
72905;DHT22;61048;52.162;4.516;2023-04-25T09:30:42;17.80;46.40
72905;DHT22;61048;52.162;4.516;2023-04-25T09:33:10;17.70;46.50
72905;DHT22;61048;52.162;4.516;2023-04-25T09:35:38;17.70;46.50
72905;DHT22;61048;52.162;4.516;2023-04-25T09:38:14;17.70;46.50
72905;DHT22;61048;52.162;4.516;2023-04-25T09:40:45;17.80;46.60
72905;DHT22;61048;52.162;4.516;2023-04-25T09:43:19;17.80;46.50
72905;DHT22;61048;52.162;4.516;2023-04-25T09:45:47;17.80;46.40
72905;DHT22;61048;52.162;4.516;2023-04-25T09:48:17;17.90;46.50
72905;DHT22;61048;52.162;4.516;2023-04-25T09:50:45;17.90;46.40
72905;DHT22;61048;52.162;4.516;2023-04-25T09:53:13;17.90;46.40
72905;DHT22;61048;52.162;4.516;2023-04-25T09:55:42;17.90;46.40
72905;DHT22;61048;52.162;4.516;2023-04-25T09:58:10;17.90;46.50
72905;DHT22;61048;52.162;4.516;2023-04-25T10:00:38;17.90;46.50
72905;DHT22;61048;52.162;4.516;2023-04-25T10:03:05;18.00;46.30
72905;DHT22;61048;52.162;4.516;2023-04-25T10:05:34;18.00;46.40
72905;DHT22;61048;52.162;4.516;2023-04-25T10:08:04;18.00;46.40
72905;DHT22;61048;52.162;4.516;2023-04-25T10:10:33;18.00;46.50
72905;DHT22;61048;52.162;4.516;2023-04-25T10:13:03;18.00;46.40
72905;DHT22;61048;52.162;4.516;2023-04-25T10:15:33;18.00;46.30
72905;DHT22;61048;52.162;4.516;2023-04-25T10:18:02;18.00;46.40
72905;DHT22;61048;52.162;4.516;2023-04-25T10:20:29;18.00;46.40
72905;DHT22;61048;52.162;4.516;2023-04-25T10:23:13;18.00;46.40
72905;DHT22;61048;52.162;4.516;2023-04-25T10:25:42;18.00;46.40
72905;DHT22;61048;52.162;4.516;2023-04-25T10:28:09;18.00;46.50
72905;DHT22;61048;52.162;4.516;2023-04-25T10:30:36;18.00;46.60
72905;DHT22;61048;52.162;4.516;2023-04-25T10:33:16;18.00;46.30
72905;DHT22;61048;52.162;4.516;2023-04-25T10:35:45;18.00;46.30
72905;DHT22;61048;52.162;4.516;2023-04-25T10:38:14;18.00;46.20
72905;DHT22;61048;52.162;4.516;2023-04-25T10:41:02;18.00;46.00
72905;DHT22;61048;52.162;4.516;2023-04-25T10:43:37;18.10;46.20
72905;DHT22;61048;52.162;4.516;2023-04-25T10:46:15;18.10;46.20
72905;DHT22;61048;52.162;4.516;2023-04-25T10:48:47;18.00;46.30
72905;DHT22;61048;52.162;4.516;2023-04-25T10:51:22;18.00;46.20
72905;DHT22;61048;52.162;4.516;2023-04-25T10:54:00;18.10;46.20
72905;DHT22;61048;52.162;4.516;2023-04-25T10:56:29;18.10;46.40
72905;DHT22;61048;52.162;4.516;2023-04-25T10:59:08;18.10;46.40
72905;DHT22;61048;52.162;4.516;2023-04-25T11:01:40;18.10;46.40
72905;DHT22;61048;52.162;4.516;2023-04-25T11:04:19;18.10;46.40
72905;DHT22;61048;52.162;4.516;2023-04-25T11:09:33;18.20;46.30
72905;DHT22;61048;52.162;4.516;2023-04-25T11:12:01;18.20;46.10
72905;DHT22;61048;52.162;4.516;2023-04-25T11:14:28;18.20;46.20
72905;DHT22;61048;52.162;4.516;2023-04-25T11:16:56;18.20;46.20
72905;DHT22;61048;52.162;4.516;2023-04-25T11:19:24;18.20;46.20
72905;DHT22;61048;52.162;4.516;2023-04-25T11:21:55;18.20;46.10
72905;DHT22;61048;52.162;4.516;2023-04-25T11:24:26;18.20;45.90
72905;DHT22;61048;52.162;4.516;2023-04-25T11:26:53;18.20;45.40
72905;DHT22;61048;52.162;4.516;2023-04-25T11:29:23;18.20;45.70
72905;DHT22;61048;52.162;4.516;2023-04-25T11:31:50;18.20;45.60
72905;DHT22;61048;52.162;4.516;2023-04-25T11:34:17;18.20;45.80
72905;DHT22;61048;52.162;4.516;2023-04-25T11:36:45;18.30;45.80
72905;DHT22;61048;52.162;4.516;2023-04-25T11:39:12;18.30;45.10
72905;DHT22;61048;52.162;4.516;2023-04-25T11:41:41;18.30;45.50
72905;DHT22;61048;52.162;4.516;2023-04-25T11:44:08;18.30;45.00
72905;DHT22;61048;52.162;4.516;2023-04-25T11:46:36;18.20;44.80
72905;DHT22;61048;52.162;4.516;2023-04-25T11:49:03;18.20;45.20
72905;DHT22;61048;52.162;4.516;2023-04-25T11:51:38;18.20;45.00
72905;DHT22;61048;52.162;4.516;2023-04-25T11:54:05;18.20;44.50
72905;DHT22;61048;52.162;4.516;2023-04-25T11:56:32;18.20;45.00
72905;DHT22;61048;52.162;4.516;2023-04-25T11:59:00;18.20;44.90
72905;DHT22;61048;52.162;4.516;2023-04-25T12:01:28;18.30;45.30
72905;DHT22;61048;52.162;4.516;2023-04-25T12:03:58;18.30;45.00
72905;DHT22;61048;52.162;4.516;2023-04-25T12:06:28;18.30;44.60
72905;DHT22;61048;52.162;4.516;2023-04-25T12:09:02;18.30;44.80
72905;DHT22;61048;52.162;4.516;2023-04-25T12:11:30;18.30;44.30
72905;DHT22;61048;52.162;4.516;2023-04-25T12:14:02;18.30;43.80
72905;DHT22;61048;52.162;4.516;2023-04-25T12:16:30;18.20;44.70
72905;DHT22;61048;52.162;4.516;2023-04-25T12:19:07;18.20;44.90
72905;DHT22;61048;52.162;4.516;2023-04-25T12:21:34;18.20;44.50
72905;DHT22;61048;52.162;4.516;2023-04-25T12:24:11;18.30;44.50
72905;DHT22;61048;52.162;4.516;2023-04-25T12:26:49;18.20;44.70
72905;DHT22;61048;52.162;4.516;2023-04-25T12:29:18;18.20;44.80
72905;DHT22;61048;52.162;4.516;2023-04-25T12:31:45;18.30;44.60
72905;DHT22;61048;52.162;4.516;2023-04-25T12:34:14;18.30;44.70
72905;DHT22;61048;52.162;4.516;2023-04-25T12:36:41;18.30;43.70
72905;DHT22;61048;52.162;4.516;2023-04-25T12:39:08;18.30;44.00
72905;DHT22;61048;52.162;4.516;2023-04-25T12:41:41;18.30;44.30
72905;DHT22;61048;52.162;4.516;2023-04-25T12:44:07;18.30;44.60
72905;DHT22;61048;52.162;4.516;2023-04-25T12:46:35;18.40;44.70
72905;DHT22;61048;52.162;4.516;2023-04-25T12:49:02;18.40;44.20
72905;DHT22;61048;52.162;4.516;2023-04-25T12:51:30;18.40;44.10
72905;DHT22;61048;52.162;4.516;2023-04-25T12:53:58;18.50;44.60
72905;DHT22;61048;52.162;4.516;2023-04-25T12:56:25;18.50;44.80
72905;DHT22;61048;52.162;4.516;2023-04-25T12:58:53;18.50;44.80
72905;DHT22;61048;52.162;4.516;2023-04-25T13:01:20;18.50;44.90
72905;DHT22;61048;52.162;4.516;2023-04-25T13:03:46;18.50;45.00
72905;DHT22;61048;52.162;4.516;2023-04-25T13:06:14;18.50;44.30
72905;DHT22;61048;52.162;4.516;2023-04-25T13:08:42;18.50;44.10
72905;DHT22;61048;52.162;4.516;2023-04-25T13:11:10;18.40;44.50
72905;DHT22;61048;52.162;4.516;2023-04-25T13:13:37;18.50;44.50
72905;DHT22;61048;52.162;4.516;2023-04-25T13:16:05;18.50;44.00
72905;DHT22;61048;52.162;4.516;2023-04-25T13:18:32;18.50;44.10
72905;DHT22;61048;52.162;4.516;2023-04-25T13:21:00;18.60;44.10
72905;DHT22;61048;52.162;4.516;2023-04-25T13:23:28;18.60;44.30
72905;DHT22;61048;52.162;4.516;2023-04-25T13:25:57;18.60;44.40
72905;DHT22;61048;52.162;4.516;2023-04-25T13:28:24;18.60;44.30
72905;DHT22;61048;52.162;4.516;2023-04-25T13:30:51;18.70;44.00
72905;DHT22;61048;52.162;4.516;2023-04-25T13:33:18;18.70;44.30
72905;DHT22;61048;52.162;4.516;2023-04-25T13:35:46;18.70;44.10
72905;DHT22;61048;52.162;4.516;2023-04-25T13:38:19;18.80;44.50
72905;DHT22;61048;52.162;4.516;2023-04-25T13:40:47;18.80;44.60
72905;DHT22;61048;52.162;4.516;2023-04-25T13:43:15;18.80;43.70
72905;DHT22;61048;52.162;4.516;2023-04-25T13:45:42;18.80;43.90
72905;DHT22;61048;52.162;4.516;2023-04-25T13:48:09;18.80;44.30
72905;DHT22;61048;52.162;4.516;2023-04-25T13:50:36;18.80;44.30
72905;DHT22;61048;52.162;4.516;2023-04-25T13:53:03;18.90;44.30
72905;DHT22;61048;52.162;4.516;2023-04-25T13:55:30;18.90;43.90
72905;DHT22;61048;52.162;4.516;2023-04-25T13:57:56;18.90;43.90
72905;DHT22;61048;52.162;4.516;2023-04-25T14:00:25;18.90;43.70
72905;DHT22;61048;52.162;4.516;2023-04-25T14:02:52;18.90;43.70
72905;DHT22;61048;52.162;4.516;2023-04-25T14:05:19;18.90;44.10
72905;DHT22;61048;52.162;4.516;2023-04-25T14:07:46;19.00;43.90
72905;DHT22;61048;52.162;4.516;2023-04-25T14:10:12;18.90;43.50
72905;DHT22;61048;52.162;4.516;2023-04-25T14:12:39;18.90;43.60
72905;DHT22;61048;52.162;4.516;2023-04-25T14:15:07;18.90;43.80
72905;DHT22;61048;52.162;4.516;2023-04-25T14:17:35;19.00;43.90
72905;DHT22;61048;52.162;4.516;2023-04-25T14:20:02;19.00;43.80
72905;DHT22;61048;52.162;4.516;2023-04-25T14:22:31;19.10;43.80
72905;DHT22;61048;52.162;4.516;2023-04-25T14:24:58;19.10;43.80
72905;DHT22;61048;52.162;4.516;2023-04-25T14:27:25;19.10;44.00
72905;DHT22;61048;52.162;4.516;2023-04-25T14:29:52;19.10;43.80
72905;DHT22;61048;52.162;4.516;2023-04-25T14:32:19;19.10;43.60
72905;DHT22;61048;52.162;4.516;2023-04-25T14:34:47;19.00;43.70
72905;DHT22;61048;52.162;4.516;2023-04-25T14:37:16;19.10;43.50
72905;DHT22;61048;52.162;4.516;2023-04-25T14:39:43;19.10;43.50
72905;DHT22;61048;52.162;4.516;2023-04-25T14:42:09;19.10;43.90
72905;DHT22;61048;52.162;4.516;2023-04-25T14:44:37;19.00;43.60
72905;DHT22;61048;52.162;4.516;2023-04-25T14:47:04;19.00;43.50
72905;DHT22;61048;52.162;4.516;2023-04-25T14:49:32;18.90;43.70
72905;DHT22;61048;52.162;4.516;2023-04-25T14:52:00;19.00;43.80
72905;DHT22;61048;52.162;4.516;2023-04-25T14:54:27;19.00;44.00
72905;DHT22;61048;52.162;4.516;2023-04-25T14:56:54;19.10;43.90
72905;DHT22;61048;52.162;4.516;2023-04-25T14:59:21;19.10;43.70
72905;DHT22;61048;52.162;4.516;2023-04-25T15:01:47;19.10;43.80
72905;DHT22;61048;52.162;4.516;2023-04-25T15:04:14;19.10;44.00
72905;DHT22;61048;52.162;4.516;2023-04-25T15:06:42;19.10;44.00
72905;DHT22;61048;52.162;4.516;2023-04-25T15:09:11;19.10;43.90
72905;DHT22;61048;52.162;4.516;2023-04-25T15:11:38;19.10;43.90
72905;DHT22;61048;52.162;4.516;2023-04-25T15:14:05;19.20;43.80
72905;DHT22;61048;52.162;4.516;2023-04-25T15:16:32;19.20;43.70
72905;DHT22;61048;52.162;4.516;2023-04-25T15:18:58;19.30;43.80
72905;DHT22;61048;52.162;4.516;2023-04-25T15:21:29;19.30;43.50
72905;DHT22;61048;52.162;4.516;2023-04-25T15:23:57;19.30;43.70
72905;DHT22;61048;52.162;4.516;2023-04-25T15:26:25;19.40;43.30
72905;DHT22;61048;52.162;4.516;2023-04-25T15:28:52;19.30;43.40
72905;DHT22;61048;52.162;4.516;2023-04-25T15:31:19;19.30;43.60
72905;DHT22;61048;52.162;4.516;2023-04-25T15:33:45;19.30;43.60
72905;DHT22;61048;52.162;4.516;2023-04-25T15:36:12;19.40;43.40